createdAt,value
2017-05-07T00:02:08.455Z,22.50
2017-05-07T00:04:39.308Z,24.72
2017-05-07T00:07:10.077Z,23.32
2017-05-07T00:09:41.882Z,24.46
2017-05-07T00:12:13.635Z,24.28
2017-05-07T00:14:44.432Z,22.20
2017-05-07T00:17:19.273Z,24.66
2017-05-07T00:19:50.178Z,24.90
2017-05-07T00:22:20.960Z,25.42
2017-05-07T00:24:51.858Z,23.60
2017-05-07T00:27:22.649Z,21.52
2017-05-07T00:29:54.207Z,20.48
2017-05-07T00:32:26.059Z,25.70
2017-05-07T00:34:57.814Z,22.42
2017-05-07T00:37:28.608Z,26.32
2017-05-07T00:39:59.460Z,23.20
2017-05-07T00:42:31.126Z,25.74
2017-05-07T00:45:02.860Z,22.72
2017-05-07T00:47:33.642Z,22.88
2017-05-07T00:50:04.481Z,22.72
2017-05-07T00:52:35.268Z,22.40
2017-05-07T00:55:06.169Z,24.90
2017-05-07T00:57:36.955Z,23.80
2017-05-07T01:00:07.852Z,20.66
2017-05-07T01:02:38.772Z,22.86
2017-05-07T01:05:09.579Z,22.62
2017-05-07T01:07:40.447Z,21.48
2017-05-07T01:10:11.219Z,21.04
2017-05-07T01:12:42.979Z,23.04
2017-05-07T01:15:13.747Z,27.78
2017-05-07T01:17:44.749Z,23.24
2017-05-07T01:20:15.528Z,21.72
2017-05-07T01:22:47.911Z,22.66
2017-05-07T01:25:18.700Z,21.12
2017-05-07T01:27:49.542Z,22.88
2017-05-07T01:30:20.400Z,22.06
2017-05-07T01:32:51.179Z,20.94
2017-05-07T01:35:22.067Z,21.84
2017-05-07T01:37:52.842Z,22.06
2017-05-07T01:40:23.787Z,23.78
2017-05-07T01:42:54.659Z,21.96
2017-05-07T01:45:25.583Z,22.98
2017-05-07T01:47:56.830Z,22.08
2017-05-07T01:50:27.671Z,20.92
2017-05-07T01:52:58.555Z,22.24
2017-05-07T01:55:29.329Z,23.64
2017-05-07T01:58:00.163Z,22.16
2017-05-07T02:00:30.958Z,23.20
2017-05-07T02:03:01.899Z,23.08
2017-05-07T02:05:32.683Z,23.18
2017-05-07T02:08:03.500Z,20.74
2017-05-07T02:10:35.151Z,23.58
2017-05-07T02:13:06.021Z,21.24
2017-05-07T02:15:36.927Z,22.32
2017-05-07T02:18:07.759Z,20.64
2017-05-07T02:20:38.601Z,22.70
2017-05-07T02:23:09.389Z,20.58
2017-05-07T02:25:40.295Z,22.56
2017-05-07T02:28:11.070Z,20.82
2017-05-07T02:30:41.916Z,22.32
2017-05-07T02:33:12.739Z,21.92
2017-05-07T02:35:43.524Z,19.68
2017-05-07T02:38:15.304Z,22.64
2017-05-07T02:40:46.119Z,23.92
2017-05-07T02:43:17.854Z,22.10
2017-05-07T02:45:48.678Z,22.84
2017-05-07T02:48:19.467Z,22.90
2017-05-07T02:50:51.632Z,21.66
2017-05-07T02:53:22.551Z,21.90
2017-05-07T02:55:53.394Z,20.94
2017-05-07T02:58:24.267Z,20.52
2017-05-07T03:00:55.143Z,24.32
2017-05-07T03:03:26.996Z,20.90
2017-05-07T03:05:57.843Z,24.40
2017-05-07T03:08:28.631Z,21.78
2017-05-07T03:10:59.641Z,20.02
2017-05-07T03:13:30.483Z,20.62
2017-05-07T03:16:02.236Z,22.16
2017-05-07T03:18:33.067Z,22.84
2017-05-07T03:21:03.912Z,23.94
2017-05-07T03:23:34.716Z,22.54
2017-05-07T03:26:05.567Z,22.50
2017-05-07T03:28:36.389Z,22.52
2017-05-07T03:31:07.352Z,23.84
2017-05-07T03:33:38.139Z,26.06
2017-05-07T03:36:08.988Z,23.92
2017-05-07T03:38:39.782Z,23.26
2017-05-07T03:41:10.625Z,24.86
2017-05-07T03:43:42.347Z,24.26
2017-05-07T03:46:13.183Z,23.04
2017-05-07T03:48:43.628Z,25.86
2017-05-07T03:51:14.507Z,25.20
2017-05-07T03:53:45.286Z,22.96
2017-05-07T03:56:16.172Z,25.10
2017-05-07T03:58:46.975Z,21.46
2017-05-07T04:01:18.168Z,26.40
2017-05-07T04:03:49.084Z,25.06
2017-05-07T04:06:21.296Z,23.26
2017-05-07T04:08:52.114Z,26.08
2017-05-07T04:11:22.895Z,25.84
2017-05-07T04:13:53.731Z,26.68
2017-05-07T04:16:24.687Z,27.74
2017-05-07T04:18:55.582Z,24.20
2017-05-07T04:21:26.581Z,26.76
2017-05-07T04:23:57.442Z,24.94
2017-05-07T04:26:29.187Z,27.42
2017-05-07T04:28:59.955Z,28.92
2017-05-07T04:31:30.790Z,25.40
2017-05-07T04:34:01.582Z,26.54
2017-05-07T04:36:32.407Z,30.48
2017-05-07T04:39:03.090Z,26.70
2017-05-07T04:41:34.214Z,24.14
2017-05-07T04:44:04.998Z,26.48
2017-05-07T04:46:36.775Z,29.02
2017-05-07T04:49:07.605Z,25.64
2017-05-07T04:51:38.473Z,24.58
2017-05-07T04:54:09.349Z,25.58
2017-05-07T04:56:40.122Z,28.98
2017-05-07T04:59:11.040Z,24.90
2017-05-07T05:01:41.838Z,27.00
2017-05-07T05:04:12.729Z,27.10
2017-05-07T05:06:43.509Z,32.62
2017-05-07T05:09:14.356Z,33.26
2017-05-07T05:11:45.176Z,25.98
2017-05-07T05:14:16.081Z,24.76
2017-05-07T05:16:46.867Z,30.30
2017-05-07T05:19:32.334Z,28.10
2017-05-07T05:25:18.094Z,26.50
2017-05-07T05:28:21.186Z,28.72
2017-05-07T05:31:03.867Z,26.74
2017-05-07T05:33:35.771Z,28.72
2017-05-07T05:36:09.878Z,26.52
2017-05-07T05:38:43.612Z,30.40
2017-05-07T05:41:16.047Z,28.20
2017-05-07T05:43:47.577Z,29.38
2017-05-07T05:46:19.517Z,33.10
2017-05-07T05:48:51.216Z,31.40
2017-05-07T05:51:22.406Z,27.38
2017-05-07T05:53:54.114Z,30.90
2017-05-07T05:56:26.012Z,29.10
2017-05-07T05:58:59.367Z,27.16
2017-05-07T06:01:32.337Z,27.34
2017-05-07T06:04:04.731Z,27.76
2017-05-07T06:06:36.044Z,31.48
2017-05-07T06:09:07.425Z,29.52
2017-05-07T06:11:38.594Z,24.70
2017-05-07T06:14:10.131Z,25.08
2017-05-07T06:16:41.107Z,27.42
2017-05-07T06:19:12.348Z,25.88
2017-05-07T06:21:43.245Z,27.80
2017-05-07T06:24:14.169Z,29.38
2017-05-07T06:26:45.445Z,29.14
2017-05-07T06:29:16.781Z,26.84
2017-05-07T06:31:48.388Z,28.22
2017-05-07T06:34:19.806Z,27.38
2017-05-07T06:36:51.534Z,25.60
2017-05-07T06:39:23.081Z,27.64
2017-05-07T06:41:54.778Z,25.80
2017-05-07T06:44:26.545Z,24.66
2017-05-07T06:46:57.404Z,25.00
2017-05-07T06:49:28.353Z,27.92
2017-05-07T06:51:59.209Z,26.18
2017-05-07T06:54:30.033Z,26.02
2017-05-07T06:57:00.922Z,23.76
2017-05-07T06:59:31.748Z,26.02
2017-05-07T07:02:02.630Z,22.78
2017-05-07T07:04:33.753Z,24.14
2017-05-07T07:07:04.268Z,24.36
2017-05-07T07:09:34.674Z,22.34
2017-05-07T07:12:05.673Z,23.32
2017-05-07T07:14:36.538Z,23.58
2017-05-07T07:17:08.249Z,25.42
2017-05-07T07:19:39.216Z,23.42
2017-05-07T07:22:10.106Z,22.70
2017-05-07T07:24:40.950Z,23.46
2017-05-07T07:27:12.277Z,25.76
2017-05-07T07:29:43.512Z,24.24
2017-05-07T07:32:14.372Z,22.38
2017-05-07T07:34:45.205Z,23.64
2017-05-07T07:37:16.163Z,24.72
2017-05-07T07:39:47.127Z,21.06
2017-05-07T07:42:17.983Z,23.72
2017-05-07T07:44:48.813Z,22.42
2017-05-07T07:47:19.492Z,24.86
2017-05-07T07:49:50.326Z,24.26
2017-05-07T07:52:21.223Z,25.32
2017-05-07T07:54:52.048Z,23.22
2017-05-07T07:57:22.908Z,23.34
2017-05-07T07:59:53.666Z,24.66
2017-05-07T08:02:24.623Z,22.86
2017-05-07T08:04:55.495Z,22.02
2017-05-07T08:07:26.531Z,18.90
2017-05-07T08:09:57.357Z,20.22
2017-05-07T08:12:28.302Z,20.50
2017-05-07T08:14:59.132Z,23.62
2017-05-07T08:17:30.017Z,24.16
2017-05-07T08:20:00.843Z,24.86
2017-05-07T08:22:31.708Z,23.90
2017-05-07T08:25:02.533Z,22.84
2017-05-07T08:27:33.384Z,23.38
2017-05-07T08:30:04.244Z,23.12
2017-05-07T08:32:35.172Z,23.18
2017-05-07T08:35:06.006Z,24.18
2017-05-07T08:37:37.026Z,24.58
2017-05-07T08:40:07.904Z,23.66
2017-05-07T08:42:38.784Z,21.36
2017-05-07T08:45:09.616Z,20.94
2017-05-07T08:47:40.488Z,19.58
2017-05-07T08:50:11.308Z,18.58
2017-05-07T08:52:42.166Z,19.24
2017-05-07T08:55:12.984Z,20.40
2017-05-07T08:57:43.993Z,19.40
2017-05-07T09:00:14.859Z,19.98
2017-05-07T09:02:46.276Z,20.70
2017-05-07T09:05:17.978Z,21.14
2017-05-07T09:07:50.188Z,22.50
2017-05-07T09:10:22.225Z,21.84
2017-05-07T09:13:08.366Z,20.76
2017-05-07T09:16:00.489Z,22.06
2017-05-07T09:18:33.616Z,21.94
2017-05-07T09:21:06.588Z,20.82
2017-05-07T09:23:38.227Z,21.34
2017-05-07T09:26:09.994Z,22.92
2017-05-07T09:28:42.850Z,25.40
2017-05-07T09:31:16.538Z,23.32
2017-05-07T09:33:49.104Z,23.26
2017-05-07T09:36:21.992Z,22.08
2017-05-07T09:38:53.850Z,21.12
2017-05-07T09:41:25.627Z,19.90
2017-05-07T09:43:58.637Z,20.30
2017-05-07T09:46:30.079Z,22.66
2017-05-07T09:49:01.450Z,20.04
2017-05-07T09:51:34.040Z,21.00
2017-05-07T09:54:07.292Z,21.72
2017-05-07T09:56:41.169Z,20.16
2017-05-07T09:59:13.290Z,18.36
2017-05-07T10:01:45.593Z,20.32
2017-05-07T10:04:18.173Z,21.52
2017-05-07T10:06:50.217Z,20.08
2017-05-07T10:09:22.491Z,21.58
2017-05-07T10:11:53.713Z,23.08
2017-05-07T10:14:26.799Z,21.78
2017-05-07T10:16:58.522Z,22.80
2017-05-07T10:19:32.495Z,19.20
2017-05-07T10:22:05.407Z,18.04
2017-05-07T10:24:36.775Z,16.88
2017-05-07T10:27:09.196Z,18.36
2017-05-07T10:29:41.588Z,19.94
2017-05-07T10:32:13.945Z,20.00
2017-05-07T10:34:45.806Z,20.10
2017-05-07T10:37:18.367Z,19.64
2017-05-07T10:39:50.375Z,19.60
2017-05-07T10:42:22.535Z,20.00
2017-05-07T10:44:54.749Z,17.04
2017-05-07T10:47:28.234Z,16.48
2017-05-07T10:49:59.803Z,16.30
2017-05-07T10:52:31.796Z,17.00
2017-05-07T10:55:03.440Z,15.20
2017-05-07T10:57:36.476Z,17.10
2017-05-07T11:00:10.702Z,16.32
2017-05-07T11:02:43.798Z,16.22
2017-05-07T11:05:15.462Z,16.48
2017-05-07T11:07:46.475Z,16.08
2017-05-07T11:10:18.212Z,15.48
2017-05-07T11:12:49.120Z,16.34
2017-05-07T11:15:20.823Z,15.76
2017-05-07T11:17:52.644Z,14.88
2017-05-07T11:20:23.696Z,15.64
2017-05-07T11:22:54.800Z,14.88
2017-05-07T11:25:25.687Z,16.66
2017-05-07T11:27:56.636Z,16.06
2017-05-07T11:30:27.582Z,19.74
2017-05-07T11:32:58.434Z,17.34
2017-05-07T11:35:28.953Z,18.06
2017-05-07T11:37:59.804Z,18.14
2017-05-07T11:40:30.734Z,19.24
2017-05-07T11:43:01.577Z,20.32
2017-05-07T11:45:32.482Z,17.24
2017-05-07T11:48:03.306Z,16.34
2017-05-07T11:50:33.994Z,20.60
2017-05-07T11:53:05.805Z,17.06
2017-05-07T11:55:36.676Z,15.76
2017-05-07T11:58:07.495Z,18.22
2017-05-07T12:00:38.361Z,19.56
2017-05-07T12:03:09.201Z,18.32
2017-05-07T12:05:40.108Z,19.86
2017-05-07T12:08:10.924Z,17.14
2017-05-07T12:10:41.876Z,17.62
2017-05-07T12:13:12.718Z,17.30
2017-05-07T12:15:43.650Z,16.68
2017-05-07T12:18:14.496Z,15.06
2017-05-07T12:20:45.382Z,13.18
2017-05-07T12:23:16.229Z,12.10
2017-05-07T12:25:47.557Z,13.30
2017-05-07T12:28:18.393Z,10.94
2017-05-07T12:30:49.286Z,11.88
2017-05-07T12:33:20.139Z,13.66
2017-05-07T12:35:50.738Z,12.52
2017-05-07T12:38:21.586Z,12.54
2017-05-07T12:40:52.531Z,12.64
2017-05-07T12:43:23.371Z,12.00
2017-05-07T12:45:54.353Z,11.78
2017-05-07T12:48:25.235Z,12.86
2017-05-07T12:50:56.134Z,10.76
2017-05-07T12:53:27.087Z,11.74
2017-05-07T12:55:57.963Z,11.28
2017-05-07T12:58:28.788Z,12.56
2017-05-07T13:00:59.659Z,11.42
2017-05-07T13:03:30.490Z,11.02
2017-05-07T13:06:01.398Z,11.72
2017-05-07T13:08:32.391Z,10.64
2017-05-07T13:11:04.762Z,11.98
2017-05-07T13:13:35.614Z,12.44
2017-05-07T13:16:06.475Z,13.10
2017-05-07T13:18:37.677Z,11.78
2017-05-07T13:21:08.600Z,12.30
2017-05-07T13:23:39.429Z,12.08
2017-05-07T13:26:10.325Z,14.24
2017-05-07T13:28:41.163Z,11.36
2017-05-07T13:31:12.099Z,12.12
2017-05-07T13:33:44.565Z,11.42
2017-05-07T13:36:15.566Z,11.86
2017-05-07T13:38:46.414Z,11.42
2017-05-07T13:41:17.343Z,10.90
2017-05-07T13:43:48.184Z,13.42
2017-05-07T13:46:19.056Z,12.30
2017-05-07T13:48:49.890Z,11.40
2017-05-07T13:51:20.788Z,11.78
2017-05-07T13:53:51.822Z,10.66
2017-05-07T13:56:23.730Z,12.04
2017-05-07T13:58:54.762Z,11.62
2017-05-07T14:01:25.701Z,10.76
2017-05-07T14:03:56.685Z,10.38
2017-05-07T14:06:27.737Z,10.46
2017-05-07T14:08:58.576Z,10.26
2017-05-07T14:11:29.462Z,10.92
2017-05-07T14:14:00.344Z,12.66
2017-05-07T14:16:31.224Z,11.60
2017-05-07T14:19:02.069Z,10.62
2017-05-07T14:21:32.970Z,10.80
2017-05-07T14:24:03.880Z,9.44
2017-05-07T14:26:34.783Z,10.56
2017-05-07T14:29:05.614Z,9.72
2017-05-07T14:31:36.486Z,10.88
2017-05-07T14:34:07.369Z,9.12
2017-05-07T14:36:38.257Z,9.20
2017-05-07T14:39:09.219Z,8.50
2017-05-07T14:41:40.195Z,8.82
2017-05-07T14:44:11.038Z,7.02
2017-05-07T14:46:41.915Z,7.64
2017-05-07T14:49:14.184Z,7.72
2017-05-07T14:51:45.096Z,8.24
2017-05-07T14:54:15.977Z,9.30
2017-05-07T14:56:46.866Z,8.20
2017-05-07T14:59:17.734Z,7.92
2017-05-07T15:01:48.634Z,8.42
2017-05-07T15:04:19.488Z,7.18
2017-05-07T15:06:50.432Z,11.40
2017-05-07T15:09:21.322Z,8.02
2017-05-07T15:11:52.183Z,7.04
2017-05-07T15:14:23.101Z,10.02
2017-05-07T15:16:54.099Z,7.82
2017-05-07T15:19:25.004Z,7.82
2017-05-07T15:21:55.914Z,7.30
2017-05-07T15:24:26.806Z,7.08
2017-05-07T15:26:57.666Z,5.88
2017-05-07T15:29:28.543Z,5.98
2017-05-07T15:31:59.490Z,6.00
2017-05-07T15:34:30.349Z,5.92
2017-05-07T15:37:01.207Z,6.78
2017-05-07T15:39:32.092Z,7.04
2017-05-07T15:42:03.077Z,7.56
2017-05-07T15:44:33.945Z,6.40
2017-05-07T15:47:04.989Z,11.28
2017-05-07T15:49:36.559Z,6.94
2017-05-07T15:52:07.429Z,18.06
2017-05-07T15:54:38.289Z,9.94
2017-05-07T15:57:09.844Z,18.28
2017-05-07T15:59:40.665Z,82.08
2017-05-07T16:02:11.560Z,156.16
2017-05-07T16:04:42.397Z,92.44
2017-05-07T16:07:13.277Z,118.42
2017-05-07T16:09:44.131Z,13.58
2017-05-07T16:12:15.004Z,6.56
2017-05-07T16:14:45.842Z,9.42
2017-05-07T16:23:47.909Z,8.30
2017-05-07T16:26:26.830Z,6.76
2017-05-07T16:29:18.985Z,5.82
2017-05-07T16:31:49.303Z,6.22
2017-05-07T16:34:19.635Z,6.38
2017-05-07T16:36:49.913Z,5.62
2017-05-07T16:39:20.215Z,6.68
2017-05-07T16:41:50.538Z,6.34
2017-05-07T16:44:20.899Z,7.04
2017-05-07T16:46:51.235Z,5.78
2017-05-07T16:49:21.559Z,8.06
2017-05-07T16:51:51.923Z,5.88
2017-05-07T16:54:22.233Z,6.84
2017-05-07T16:56:52.547Z,5.42
2017-05-07T16:59:22.943Z,6.12
2017-05-07T17:01:53.187Z,6.08
2017-05-07T17:04:23.440Z,7.90
2017-05-07T17:06:59.235Z,5.84
2017-05-07T17:09:29.666Z,5.70
2017-05-07T17:11:59.951Z,5.04
2017-05-07T17:14:30.304Z,5.96
2017-05-07T17:17:00.608Z,4.90
2017-05-07T17:19:31.031Z,5.14
2017-05-07T17:22:01.310Z,5.28
2017-05-07T17:24:31.656Z,4.78
2017-05-07T17:27:02.356Z,4.90
2017-05-07T17:29:33.553Z,4.78
2017-05-07T17:32:04.621Z,5.34
2017-05-07T17:34:35.862Z,5.10
2017-05-07T17:37:07.055Z,4.90
2017-05-07T17:39:37.981Z,4.84
2017-05-07T17:42:08.790Z,4.88
2017-05-07T17:44:39.645Z,5.96
2017-05-07T17:47:10.061Z,5.40
2017-05-07T17:49:40.889Z,5.48
2017-05-07T17:52:11.654Z,5.34
2017-05-07T17:54:42.599Z,5.18
2017-05-07T17:57:13.365Z,5.18
2017-05-07T17:59:44.211Z,5.26
2017-05-07T18:02:14.975Z,7.98
2017-05-07T18:04:45.796Z,5.26
2017-05-07T18:07:16.614Z,6.16
2017-05-07T18:09:47.824Z,6.16
2017-05-07T18:12:19.667Z,7.22
2017-05-07T18:14:50.792Z,6.82
2017-05-07T18:17:21.608Z,5.88
2017-05-07T18:19:52.441Z,7.98
2017-05-07T18:22:23.208Z,7.48
2017-05-07T18:24:54.186Z,6.90
2017-05-07T18:27:24.981Z,6.66
2017-05-07T18:29:55.822Z,6.54
2017-05-07T18:32:29.460Z,6.34
2017-05-07T18:35:01.814Z,8.24
2017-05-07T18:37:32.630Z,7.54
2017-05-07T18:40:03.490Z,6.78
2017-05-07T18:42:34.680Z,6.60
2017-05-07T18:45:05.564Z,6.50
2017-05-07T18:47:36.326Z,6.50
2017-05-07T18:50:07.686Z,6.40
2017-05-07T18:52:40.743Z,6.80
2017-05-07T18:55:11.753Z,7.14
2017-05-07T18:57:42.939Z,7.78
2017-05-07T19:00:14.595Z,7.02
2017-05-07T19:02:45.610Z,7.46
2017-05-07T19:05:17.865Z,8.04
2017-05-07T19:07:49.212Z,6.80
2017-05-07T19:10:20.215Z,7.38
2017-05-07T19:12:53.142Z,6.26
2017-05-07T19:15:24.987Z,8.08
2017-05-07T19:17:57.316Z,6.58
2017-05-07T19:20:28.745Z,10.06
2017-05-07T19:23:01.064Z,6.74
2017-05-07T19:25:33.093Z,6.00
2017-05-07T19:28:04.428Z,6.40
2017-05-07T19:30:36.757Z,6.38
2017-05-07T19:33:09.044Z,7.48
2017-05-07T19:35:40.623Z,6.20
2017-05-07T19:38:11.888Z,5.48
2017-05-07T19:40:43.371Z,6.50
2017-05-07T19:43:14.748Z,5.76
2017-05-07T19:45:45.940Z,6.60
2017-05-07T19:48:17.181Z,6.24
2017-05-07T19:50:48.736Z,6.82
2017-05-07T19:53:19.561Z,6.30
2017-05-07T19:55:50.842Z,6.82
2017-05-07T19:58:21.637Z,7.26
2017-05-07T20:00:52.796Z,7.98
2017-05-07T20:03:23.784Z,6.54
2017-05-07T20:05:54.647Z,8.10
2017-05-07T20:08:25.582Z,6.62
2017-05-07T20:10:56.510Z,9.44
2017-05-07T20:13:30.283Z,7.22
2017-05-07T20:16:02.595Z,7.36
2017-05-07T20:18:33.366Z,7.04
2017-05-07T20:21:04.210Z,8.32
2017-05-07T20:23:35.039Z,8.32
2017-05-07T20:26:05.850Z,8.14
2017-05-07T20:28:36.628Z,8.38
2017-05-07T20:31:07.519Z,9.90
2017-05-07T20:33:38.285Z,9.82
2017-05-07T20:36:09.713Z,11.22
2017-05-07T20:38:40.483Z,11.40
2017-05-07T20:41:11.353Z,10.64
2017-05-07T20:43:42.131Z,11.26
2017-05-07T20:46:12.954Z,11.56
2017-05-07T20:48:43.751Z,13.74
2017-05-07T20:51:14.687Z,14.06
2017-05-07T20:53:45.474Z,11.50
2017-05-07T20:56:16.305Z,11.82
2017-05-07T20:58:47.107Z,11.72
2017-05-07T21:01:17.955Z,13.38
2017-05-07T21:03:48.795Z,11.82
2017-05-07T21:06:18.337Z,13.12
2017-05-07T21:08:48.751Z,12.50
2017-05-07T21:11:19.599Z,11.48
2017-05-07T21:13:50.429Z,11.68
2017-05-07T21:16:21.265Z,11.76
2017-05-07T21:18:52.084Z,13.52
2017-05-07T21:21:22.969Z,12.10
2017-05-07T21:23:53.742Z,13.50
2017-05-07T21:26:24.569Z,13.54
2017-05-07T21:28:55.382Z,14.20
2017-05-07T21:31:26.307Z,13.24
2017-05-07T21:33:57.154Z,11.52
2017-05-07T21:36:28.044Z,11.84
2017-05-07T21:38:58.840Z,11.96
2017-05-07T21:41:29.683Z,12.92
2017-05-07T21:44:00.496Z,12.50
2017-05-07T21:46:31.357Z,13.02
2017-05-07T21:49:02.155Z,13.12
2017-05-07T21:51:33.007Z,15.30
2017-05-07T21:54:03.847Z,13.76
2017-05-07T21:56:34.721Z,12.92
2017-05-07T21:59:05.554Z,13.02
2017-05-07T22:01:36.456Z,13.36
2017-05-07T22:04:07.242Z,15.62
2017-05-07T22:06:38.063Z,15.20
2017-05-07T22:09:08.902Z,14.96
2017-05-07T22:11:40.635Z,13.72
2017-05-07T22:14:11.415Z,14.68
2017-05-07T22:16:42.211Z,14.98
2017-05-07T22:19:13.008Z,14.16
2017-05-07T22:21:43.907Z,13.60
2017-05-07T22:24:14.869Z,13.96
2017-05-07T22:26:45.669Z,13.94
2017-05-07T22:29:16.459Z,14.40
2017-05-07T22:31:47.300Z,13.70
2017-05-07T22:34:18.089Z,13.06
2017-05-07T22:36:48.910Z,12.30
2017-05-07T22:39:20.658Z,12.30
2017-05-07T22:41:51.502Z,12.60
2017-05-07T22:44:22.310Z,12.36
2017-05-07T22:46:53.208Z,11.66
2017-05-07T22:49:23.986Z,11.30
2017-05-07T22:51:54.855Z,11.32
2017-05-07T22:54:25.695Z,11.94
2017-05-07T22:56:56.593Z,13.62
2017-05-07T22:59:28.035Z,15.18
2017-05-07T23:01:58.873Z,13.08
2017-05-07T23:04:29.653Z,15.16
2017-05-07T23:07:00.471Z,16.10
2017-05-07T23:09:31.275Z,14.24
2017-05-07T23:12:02.982Z,14.12
2017-05-07T23:14:33.819Z,14.66
2017-05-07T23:17:04.630Z,14.96
2017-05-07T23:19:35.415Z,16.12
2017-05-07T23:22:06.260Z,18.96
2017-05-07T23:24:37.058Z,18.02
2017-05-07T23:27:07.907Z,16.24
2017-05-07T23:29:38.726Z,17.34
2017-05-07T23:32:09.691Z,16.68
2017-05-07T23:34:40.477Z,17.04
2017-05-07T23:37:11.351Z,17.62
2017-05-07T23:39:42.143Z,15.54
2017-05-07T23:42:12.986Z,15.86
2017-05-07T23:44:43.850Z,17.52
2017-05-07T23:47:14.699Z,16.98
2017-05-07T23:49:45.502Z,16.82
2017-05-07T23:52:16.413Z,16.28
2017-05-07T23:54:47.193Z,15.00
2017-05-07T23:57:18.148Z,16.58
2017-05-07T23:59:48.916Z,15.26
